Terminal Aerodrome Forecast
Issued by NWS

Home | Current Version | Previous Version | Text Only | Print | Product List | Glossary Off
Versions: 1 2 3 4 5 6 7 8 9 10 11 12 13 14 15 16

000
FTUS42 KMHX 301700
TAFOAJ
TAF
KOAJ 301720Z 3018/3118 13007KT P6SM BKN050
     FM310100 17003KT P6SM SKC
     FM310900 18001KT 3SM BR SKC
     FM311300 20005KT P6SM SCT040
      AMD LTD TO CLD VIS AND WIND=

USA.gov is the U.S. government's official web portal to all federal, state and local government web resources and services.